createdAt,value
2016-08-11T00:00:34.612Z,0
2016-08-11T00:01:34.561Z,0
2016-08-11T00:02:34.613Z,0
2016-08-11T00:03:33.203Z,0
2016-08-11T00:04:33.913Z,0
2016-08-11T00:05:33.314Z,0
2016-08-11T00:06:32.537Z,0
2016-08-11T00:07:33.963Z,0
2016-08-11T00:08:33.283Z,0
2016-08-11T00:09:34.002Z,0
2016-08-11T00:10:34.021Z,0
2016-08-11T00:11:34.050Z,0
2016-08-11T00:12:32.651Z,0
2016-08-11T00:13:33.467Z,0
2016-08-11T00:14:33.393Z,0
2016-08-11T00:15:34.141Z,0
2016-08-11T00:16:34.122Z,0
2016-08-11T00:17:34.864Z,0
2016-08-11T00:18:33.479Z,0
2016-08-11T00:19:34.924Z,0
2016-08-11T00:20:34.302Z,0
2016-08-11T00:21:34.221Z,0
2016-08-11T00:22:32.842Z,0
2016-08-11T00:23:34.248Z,0
2016-08-11T00:24:34.398Z,0
2016-08-11T00:25:34.314Z,0
2016-08-11T00:26:33.613Z,0
2016-08-11T00:27:33.713Z,0
2016-08-11T00:28:33.665Z,0
2016-08-11T00:29:34.379Z,0
2016-08-11T00:30:34.400Z,0
2016-08-11T00:31:35.129Z,0
2016-08-11T00:32:34.435Z,0
2016-08-11T00:33:34.461Z,0
2016-08-11T00:34:34.481Z,0
2016-08-11T00:35:33.833Z,0
2016-08-11T00:36:34.524Z,0
2016-08-11T00:37:34.540Z,0
2016-08-11T00:38:34.567Z,0
2016-08-11T00:39:34.622Z,0
2016-08-11T00:40:35.283Z,0
2016-08-11T00:41:33.894Z,0
2016-08-11T00:42:35.332Z,0
2016-08-11T00:43:33.813Z,0
2016-08-11T00:44:34.671Z,0
2016-08-11T00:45:33.979Z,0
2016-08-11T00:46:35.422Z,0
2016-08-11T00:47:35.437Z,0
2016-08-11T00:48:35.530Z,0
2016-08-11T00:49:35.461Z,0
2016-08-11T00:50:34.085Z,0
2016-08-11T00:51:34.865Z,0
2016-08-11T00:52:34.119Z,0
2016-08-11T00:53:33.474Z,0
2016-08-11T00:54:33.453Z,0
2016-08-11T00:55:35.584Z,0
2016-08-11T00:56:34.891Z,0
2016-08-11T00:57:35.621Z,0
2016-08-11T00:58:35.443Z,0
2016-08-11T00:59:33.716Z,0
2016-08-11T01:00:34.983Z,0
2016-08-11T01:01:33.576Z,0
2016-08-11T01:02:34.393Z,0
2016-08-11T01:03:34.410Z,0
2016-08-11T01:04:34.332Z,0
2016-08-11T01:05:34.363Z,0
2016-08-11T01:06:35.791Z,0
2016-08-11T01:07:34.384Z,0
2016-08-11T01:08:35.125Z,0
2016-08-11T01:09:34.444Z,0
2016-08-11T01:10:33.851Z,0
2016-08-11T01:11:34.464Z,0
2016-08-11T01:12:35.285Z,0
2016-08-11T01:13:35.465Z,0
2016-08-11T01:14:34.613Z,0
2016-08-11T01:15:35.262Z,0
2016-08-11T01:16:36.124Z,0
2016-08-11T01:17:34.603Z,0
2016-08-11T01:18:34.623Z,0
2016-08-11T01:19:34.635Z,0
2016-08-11T01:20:35.354Z,0
2016-08-11T01:21:35.364Z,0
2016-08-11T01:22:36.109Z,0
2016-08-11T01:23:35.644Z,0
2016-08-11T01:24:34.713Z,0
2016-08-11T01:25:34.765Z,0
2016-08-11T01:26:35.443Z,0
2016-08-11T01:27:36.184Z,0
2016-08-11T01:28:34.832Z,0
2016-08-11T01:29:34.855Z,0
2016-08-11T01:30:36.254Z,0
2016-08-11T01:31:35.561Z,0
2016-08-11T01:32:35.583Z,0
2016-08-11T01:33:34.869Z,0
2016-08-11T01:34:34.983Z,0
2016-08-11T01:35:35.630Z,0
2016-08-11T01:36:35.642Z,0
2016-08-11T01:37:35.651Z,0
2016-08-11T01:38:34.284Z,0
2016-08-11T01:39:35.004Z,0
2016-08-11T01:40:35.805Z,0
2016-08-11T01:41:35.733Z,0
2016-08-11T01:42:35.750Z,0
2016-08-11T01:43:36.072Z,0
2016-08-11T01:44:35.834Z,0
2016-08-11T01:45:35.824Z,0
2016-08-11T01:46:35.823Z,0
2016-08-11T01:47:35.857Z,0
2016-08-11T01:48:34.467Z,0
2016-08-11T01:49:34.470Z,0
2016-08-11T01:50:35.905Z,0
2016-08-11T01:51:36.093Z,0
2016-08-11T01:52:35.929Z,0
2016-08-11T01:53:35.260Z,0
2016-08-11T01:54:35.282Z,0
2016-08-11T01:55:36.023Z,0
2016-08-11T01:56:35.312Z,0
2016-08-11T01:57:36.736Z,0
2016-08-11T01:59:36.088Z,0
2016-08-11T02:00:36.785Z,0
2016-08-11T02:01:36.103Z,0
2016-08-11T02:02:36.818Z,0
2016-08-11T02:03:36.142Z,0
2016-08-11T02:04:35.558Z,0
2016-08-11T02:05:35.461Z,0
2016-08-11T02:06:35.564Z,0
2016-08-11T02:07:36.211Z,0
2016-08-11T02:08:37.049Z,0
2016-08-11T02:09:36.961Z,0
2016-08-11T02:10:36.273Z,0
2016-08-11T02:11:36.303Z,0
2016-08-11T02:12:37.026Z,0
2016-08-11T02:14:35.637Z,0
2016-08-11T02:15:36.372Z,0
2016-08-11T02:16:36.370Z,0
2016-08-11T02:17:35.693Z,0
2016-08-11T02:18:37.125Z,0
2016-08-11T02:19:35.731Z,0
2016-08-11T02:20:36.452Z,0
2016-08-11T02:21:36.498Z,0
2016-08-11T02:22:35.781Z,0
2016-08-11T02:23:36.499Z,0
2016-08-11T02:24:36.542Z,0
2016-08-11T02:25:36.540Z,0
2016-08-11T02:26:36.568Z,0
2016-08-11T02:27:36.621Z,0
2016-08-11T02:29:36.617Z,0
2016-08-11T02:30:36.776Z,0
2016-08-11T02:31:37.372Z,0
2016-08-11T02:32:37.375Z,0
2016-08-11T02:33:36.030Z,0
2016-08-11T02:34:36.778Z,0
2016-08-11T02:35:36.032Z,0
2016-08-11T02:36:37.625Z,0
2016-08-11T02:37:36.222Z,0
2016-08-11T02:38:36.108Z,0
2016-08-11T02:39:36.813Z,0
2016-08-11T02:40:37.601Z,0
2016-08-11T02:41:36.871Z,0
2016-08-11T02:42:36.947Z,0
2016-08-11T02:43:36.261Z,0
2016-08-11T02:44:36.907Z,0
2016-08-11T02:45:36.921Z,0
2016-08-11T02:46:37.641Z,0
2016-08-11T02:47:36.270Z,0
2016-08-11T02:48:36.268Z,0
2016-08-11T02:49:35.602Z,0
2016-08-11T02:50:37.022Z,0
2016-08-11T02:51:37.053Z,0
2016-08-11T02:52:37.082Z,0
2016-08-11T02:53:36.360Z,0
2016-08-11T02:54:36.418Z,0
2016-08-11T02:55:36.390Z,0
2016-08-11T02:56:36.440Z,0
2016-08-11T02:57:36.512Z,0
2016-08-11T02:58:37.967Z,0
2016-08-11T02:59:37.199Z,0
2016-08-11T03:00:35.789Z,0
2016-08-11T03:01:36.532Z,0
2016-08-11T03:02:37.251Z,0
2016-08-11T03:03:37.276Z,0
2016-08-11T03:04:36.653Z,0
2016-08-11T03:05:38.002Z,0
2016-08-11T03:06:37.639Z,0
2016-08-11T03:07:36.642Z,0
2016-08-11T03:08:37.367Z,0
2016-08-11T03:09:36.038Z,0
2016-08-11T03:10:36.685Z,0
2016-08-11T03:11:36.965Z,0
2016-08-11T03:12:36.747Z,0
2016-08-11T03:13:36.081Z,0
2016-08-11T03:14:37.481Z,0
2016-08-11T03:15:36.090Z,4
2016-08-11T03:16:36.795Z,4
2016-08-11T03:17:38.232Z,4
2016-08-11T03:18:36.984Z,0
2016-08-11T03:19:37.021Z,4
2016-08-11T03:20:37.583Z,4
2016-08-11T03:21:37.613Z,0
2016-08-11T03:22:38.362Z,4
2016-08-11T03:23:36.232Z,8
2016-08-11T03:24:37.022Z,4
2016-08-11T03:25:37.072Z,4
2016-08-11T03:26:37.718Z,8
2016-08-11T03:27:38.428Z,8
2016-08-11T03:28:37.129Z,12
2016-08-11T03:29:37.762Z,12
2016-08-11T03:30:37.778Z,16
2016-08-11T03:31:38.477Z,16
2016-08-11T03:32:36.400Z,20
2016-08-11T03:33:37.162Z,24
2016-08-11T03:34:37.291Z,24
2016-08-11T03:35:37.173Z,32
2016-08-11T03:36:38.642Z,36
2016-08-11T03:37:38.692Z,36
2016-08-11T03:38:37.209Z,44
2016-08-11T03:39:37.282Z,48
2016-08-11T03:40:37.262Z,56
2016-08-11T03:41:37.972Z,60
2016-08-11T03:42:38.001Z,68
2016-08-11T03:43:38.025Z,84
2016-08-11T03:44:37.452Z,92
2016-08-11T03:45:38.053Z,100
2016-08-11T03:46:38.063Z,112
2016-08-11T03:47:38.799Z,124
2016-08-11T03:48:37.404Z,140
2016-08-11T03:49:38.118Z,152
2016-08-11T03:50:38.867Z,168
2016-08-11T03:51:38.153Z,188
2016-08-11T03:52:38.888Z,208
2016-08-11T03:53:37.489Z,228
2016-08-11T03:54:38.974Z,252
2016-08-11T03:55:38.965Z,280
2016-08-11T03:56:37.683Z,308
2016-08-11T03:57:38.263Z,340
2016-08-11T03:58:38.301Z,372
2016-08-11T03:59:39.023Z,408
2016-08-11T04:00:37.631Z,444
2016-08-11T04:01:37.695Z,484
2016-08-11T04:02:38.454Z,520
2016-08-11T04:03:38.372Z,564
2016-08-11T04:04:39.103Z,604
2016-08-11T04:05:39.173Z,660
2016-08-11T04:06:39.145Z,712
2016-08-11T04:07:38.496Z,768
2016-08-11T04:08:38.484Z,824
2016-08-11T04:09:39.213Z,876
2016-08-11T04:10:37.856Z,928
2016-08-11T04:11:38.514Z,984
2016-08-11T04:12:39.274Z,1040
2016-08-11T04:13:38.580Z,1100
2016-08-11T04:14:37.858Z,1168
2016-08-11T04:15:39.301Z,1248
2016-08-11T04:16:38.632Z,1332
2016-08-11T04:17:38.725Z,1412
2016-08-11T04:18:38.673Z,1492
2016-08-11T04:19:38.054Z,1560
2016-08-11T04:20:38.787Z,1632
2016-08-11T04:21:38.127Z,1712
2016-08-11T04:22:38.740Z,1796
2016-08-11T04:23:39.472Z,1872
2016-08-11T04:24:38.791Z,1948
2016-08-11T04:25:38.094Z,2020
2016-08-11T04:26:38.086Z,2096
2016-08-11T04:27:39.603Z,2160
2016-08-11T04:28:38.844Z,2236
2016-08-11T04:29:38.914Z,2312
2016-08-11T04:30:38.884Z,2404
2016-08-11T04:31:38.904Z,2484
2016-08-11T04:32:38.914Z,2580
2016-08-11T04:33:39.693Z,2676
2016-08-11T04:34:39.677Z,2784
2016-08-11T04:35:39.672Z,2896
2016-08-11T04:36:38.361Z,3024
2016-08-11T04:37:39.017Z,3172
2016-08-11T04:38:38.321Z,3344
2016-08-11T04:39:39.754Z,3516
2016-08-11T04:40:39.092Z,3668
2016-08-11T04:41:39.085Z,3832
2016-08-11T04:42:39.893Z,4016
2016-08-11T04:43:37.804Z,4164
2016-08-11T04:44:38.433Z,4304
2016-08-11T04:45:39.174Z,4480
2016-08-11T04:46:39.183Z,4696
2016-08-11T04:47:39.201Z,4960
2016-08-11T04:48:39.927Z,5236
2016-08-11T04:49:39.280Z,5448
2016-08-11T04:50:37.875Z,5608
2016-08-11T04:51:40.075Z,5628
2016-08-11T04:52:38.596Z,5560
2016-08-11T04:53:39.324Z,5480
2016-08-11T04:54:38.629Z,5460
2016-08-11T04:55:38.662Z,5316
2016-08-11T04:56:40.084Z,5108
2016-08-11T04:57:38.222Z,4920
2016-08-11T04:58:39.407Z,4712
2016-08-11T04:59:39.507Z,4548
2016-08-11T05:00:39.471Z,4412
2016-08-11T05:01:39.725Z,4348
2016-08-11T05:02:39.601Z,4360
2016-08-11T05:03:38.792Z,4404
2016-08-11T05:04:40.703Z,4464
2016-08-11T05:05:39.537Z,4524
2016-08-11T05:06:39.657Z,4604
2016-08-11T05:07:39.792Z,4596
2016-08-11T05:08:38.224Z,4560
2016-08-11T05:09:39.634Z,4416
2016-08-11T05:10:38.948Z,4240
2016-08-11T05:11:38.964Z,4124
2016-08-11T05:12:38.976Z,4028
2016-08-11T05:13:39.759Z,3976
2016-08-11T05:14:38.343Z,3888
2016-08-11T05:15:39.042Z,3748
2016-08-11T05:16:39.972Z,3564
2016-08-11T05:17:40.563Z,3428
2016-08-11T05:18:39.130Z,3376
2016-08-11T05:19:39.879Z,3372
2016-08-11T05:20:39.944Z,3424
2016-08-11T05:21:39.870Z,3604
2016-08-11T05:22:40.657Z,3828
2016-08-11T05:23:39.201Z,3952
2016-08-11T05:24:40.794Z,3996
2016-08-11T05:25:40.824Z,4012
2016-08-11T05:26:39.959Z,4064
2016-08-11T05:27:40.873Z,4108
2016-08-11T05:28:40.729Z,4104
2016-08-11T05:29:40.070Z,4056
2016-08-11T05:30:40.777Z,3988
2016-08-11T05:31:40.851Z,3932
2016-08-11T05:32:40.822Z,3912
2016-08-11T05:33:40.117Z,3940
2016-08-11T05:34:40.132Z,3956
2016-08-11T05:35:39.455Z,3952
2016-08-11T05:36:40.183Z,3916
2016-08-11T05:37:38.788Z,3856
2016-08-11T05:38:39.533Z,3864
2016-08-11T05:39:40.931Z,3952
2016-08-11T05:40:40.964Z,4080
2016-08-11T05:41:39.035Z,4232
2016-08-11T05:42:38.894Z,4344
2016-08-11T05:43:40.330Z,4368
2016-08-11T05:44:39.633Z,4272
2016-08-11T05:45:40.390Z,4120
2016-08-11T05:46:38.959Z,3972
2016-08-11T05:47:39.789Z,3876
2016-08-11T05:48:40.420Z,3840
2016-08-11T05:49:40.442Z,3844
2016-08-11T05:50:40.503Z,3888
2016-08-11T05:51:40.548Z,3944
2016-08-11T05:52:41.203Z,4040
2016-08-11T05:53:41.252Z,4148
2016-08-11T05:54:39.954Z,4264
2016-08-11T05:55:40.552Z,4408
2016-08-11T05:56:40.641Z,4576
2016-08-11T05:57:40.096Z,4736
2016-08-11T05:58:40.812Z,4868
2016-08-11T05:59:40.789Z,4968
2016-08-11T06:00:39.247Z,5060
2016-08-11T06:01:41.400Z,5168
2016-08-11T06:02:41.392Z,5228
2016-08-11T06:03:40.353Z,5280
2016-08-11T06:04:40.849Z,5284
2016-08-11T06:05:41.474Z,5252
2016-08-11T06:06:40.072Z,5192
2016-08-11T06:07:41.055Z,5136
2016-08-11T06:08:41.545Z,5096
2016-08-11T06:09:41.033Z,5052
2016-08-11T06:10:41.572Z,5028
2016-08-11T06:11:40.913Z,5032
2016-08-11T06:12:40.908Z,5048
2016-08-11T06:13:40.265Z,5044
2016-08-11T06:14:39.629Z,5016
2016-08-11T06:15:41.675Z,4948
2016-08-11T06:16:40.993Z,4868
2016-08-11T06:17:41.819Z,4812
2016-08-11T06:18:41.052Z,4788
2016-08-11T06:19:39.753Z,4820
2016-08-11T06:20:41.092Z,4968
2016-08-11T06:21:40.372Z,5200
2016-08-11T06:22:41.263Z,5412
2016-08-11T06:23:41.134Z,5528
2016-08-11T06:24:40.503Z,5552
2016-08-11T06:25:41.884Z,5484
2016-08-11T06:26:40.484Z,5352
2016-08-11T06:27:39.803Z,5212
2016-08-11T06:28:40.534Z,5084
2016-08-11T06:29:41.264Z,4912
2016-08-11T06:30:41.986Z,4632
2016-08-11T06:31:41.467Z,4288
2016-08-11T06:32:40.604Z,3968
2016-08-11T06:33:42.053Z,3732
2016-08-11T06:34:41.384Z,3648
2016-08-11T06:35:42.227Z,3696
2016-08-11T06:36:40.783Z,3828
2016-08-11T06:37:40.712Z,3996
2016-08-11T06:38:41.433Z,4156
2016-08-11T06:39:41.481Z,4312
2016-08-11T06:40:40.071Z,4468
2016-08-11T06:41:42.247Z,4664
2016-08-11T06:42:41.654Z,4884
2016-08-11T06:43:41.548Z,5124
2016-08-11T06:44:40.859Z,5332
2016-08-11T06:45:41.573Z,5484
2016-08-11T06:46:41.089Z,5516
2016-08-11T06:47:42.321Z,5412
2016-08-11T06:48:40.985Z,5192
2016-08-11T06:49:42.381Z,4916
2016-08-11T06:50:41.698Z,4764
2016-08-11T06:51:42.414Z,4788
2016-08-11T06:52:41.716Z,4928
2016-08-11T06:53:41.776Z,5116
2016-08-11T06:54:41.785Z,5224
2016-08-11T06:55:41.152Z,5132
2016-08-11T06:56:41.790Z,4880
2016-08-11T06:57:42.518Z,4608
2016-08-11T06:58:41.855Z,4436
2016-08-11T06:59:41.956Z,4344
2016-08-11T07:00:41.175Z,4276
2016-08-11T07:01:41.199Z,4200
2016-08-11T07:02:41.920Z,4184
2016-08-11T07:03:42.679Z,4252
2016-08-11T07:04:41.433Z,4392
2016-08-11T07:05:41.997Z,4588
2016-08-11T07:06:42.010Z,4824
2016-08-11T07:07:42.032Z,5012
2016-08-11T07:08:42.046Z,5056
2016-08-11T07:09:42.771Z,4912
2016-08-11T07:10:42.159Z,4632
2016-08-11T07:11:41.401Z,4376
2016-08-11T07:12:42.211Z,4236
2016-08-11T07:13:41.470Z,4236
2016-08-11T07:14:42.172Z,4272
2016-08-11T07:15:41.611Z,4276
2016-08-11T07:16:42.222Z,4264
2016-08-11T07:17:42.243Z,4276
2016-08-11T07:18:41.540Z,4312
2016-08-11T07:19:40.941Z,4332
2016-08-11T07:20:41.582Z,4292
2016-08-11T07:21:41.702Z,4300
2016-08-11T07:22:43.033Z,4424
2016-08-11T07:23:42.365Z,4628
2016-08-11T07:24:41.685Z,4892
2016-08-11T07:25:42.443Z,5072
2016-08-11T07:26:42.397Z,5036
2016-08-11T07:27:42.572Z,4896
2016-08-11T07:28:42.453Z,4672
2016-08-11T07:29:42.477Z,4444
2016-08-11T07:30:42.493Z,4292
2016-08-11T07:31:43.222Z,4200
2016-08-11T07:32:41.232Z,4192
2016-08-11T07:33:43.280Z,4260
2016-08-11T07:34:41.913Z,4348
2016-08-11T07:35:43.323Z,4452
2016-08-11T07:36:41.922Z,4644
2016-08-11T07:37:41.271Z,4976
2016-08-11T07:38:43.432Z,5504
2016-08-11T07:39:42.688Z,6228
2016-08-11T07:40:42.712Z,7024
2016-08-11T07:41:42.026Z,7620
2016-08-11T07:42:42.054Z,7920
2016-08-11T07:43:43.487Z,7992
2016-08-11T07:44:43.500Z,8088
2016-08-11T07:45:43.516Z,8256
2016-08-11T07:46:43.547Z,8376
2016-08-11T07:47:42.860Z,8456
2016-08-11T07:48:42.861Z,8476
2016-08-11T07:49:42.900Z,8400
2016-08-11T07:50:42.912Z,8264
2016-08-11T07:51:42.327Z,8104
2016-08-11T07:52:43.647Z,7888
2016-08-11T07:53:42.993Z,7676
2016-08-11T07:54:42.282Z,7428
2016-08-11T07:55:43.734Z,7076
2016-08-11T07:56:43.732Z,6620
2016-08-11T07:57:42.328Z,6100
2016-08-11T07:58:43.081Z,5632
2016-08-11T07:59:43.083Z,5252
2016-08-11T08:00:42.492Z,4916
2016-08-11T08:01:43.124Z,4592
2016-08-11T08:02:43.932Z,4380
2016-08-11T08:03:43.871Z,4320
2016-08-11T08:04:43.200Z,4364
2016-08-11T08:05:43.310Z,4456
2016-08-11T08:06:42.536Z,4588
2016-08-11T08:07:43.961Z,4760
2016-08-11T08:08:43.284Z,4976
2016-08-11T08:09:43.367Z,5252
2016-08-11T08:10:42.752Z,5592
2016-08-11T08:11:44.042Z,5964
2016-08-11T08:12:43.365Z,6380
2016-08-11T08:13:43.551Z,6976
2016-08-11T08:14:43.397Z,7704
2016-08-11T08:15:43.479Z,8316
2016-08-11T08:16:43.434Z,8612
2016-08-11T08:17:43.483Z,8680
2016-08-11T08:18:42.783Z,8672
2016-08-11T08:19:44.228Z,8632
2016-08-11T08:20:44.532Z,8492
2016-08-11T08:21:43.577Z,8216
2016-08-11T08:22:43.949Z,7912
2016-08-11T08:23:43.812Z,7756
2016-08-11T08:24:43.783Z,7840
2016-08-11T08:25:43.783Z,8012
2016-08-11T08:26:43.822Z,8156
2016-08-11T08:27:43.776Z,8236
2016-08-11T08:28:43.812Z,8268
2016-08-11T08:29:43.821Z,8464
2016-08-11T08:30:43.813Z,8752
2016-08-11T08:31:43.072Z,8876
2016-08-11T08:32:43.821Z,8792
2016-08-11T08:33:43.100Z,8648
2016-08-11T08:34:44.535Z,8584
2016-08-11T08:35:43.931Z,8524
2016-08-11T08:36:44.624Z,8480
2016-08-11T08:37:43.200Z,8524
2016-08-11T08:38:43.942Z,8448
2016-08-11T08:39:43.922Z,8404
2016-08-11T08:40:44.657Z,8960
2016-08-11T08:41:44.784Z,10188
2016-08-11T08:42:43.292Z,11884
2016-08-11T08:43:44.732Z,13308
2016-08-11T08:44:44.073Z,13624
2016-08-11T08:45:44.791Z,13316
2016-08-11T08:46:44.140Z,12896
2016-08-11T08:47:44.789Z,12148
2016-08-11T08:48:44.523Z,11156
2016-08-11T08:49:43.433Z,10496
2016-08-11T08:50:44.162Z,10480
2016-08-11T08:51:43.523Z,10652
2016-08-11T08:52:44.221Z,10160
2016-08-11T08:53:44.932Z,9828
2016-08-11T08:54:43.548Z,10192
2016-08-11T08:55:44.389Z,10824
2016-08-11T08:56:44.304Z,10800
2016-08-11T08:57:44.310Z,10340
2016-08-11T08:58:45.052Z,10136
2016-08-11T08:59:44.466Z,10084
2016-08-11T09:00:44.380Z,10056
2016-08-11T09:01:43.709Z,9832
2016-08-11T09:02:44.427Z,9384
2016-08-11T09:03:44.438Z,8964
2016-08-11T09:04:44.473Z,8732
2016-08-11T09:05:43.992Z,8832
2016-08-11T09:06:45.239Z,9012
2016-08-11T09:07:43.370Z,9096
2016-08-11T09:08:44.770Z,9004
2016-08-11T09:09:45.281Z,8720
2016-08-11T09:10:44.011Z,8452
2016-08-11T09:11:44.622Z,8196
2016-08-11T09:12:45.482Z,7844
2016-08-11T09:13:44.672Z,7516
2016-08-11T09:14:44.726Z,7316
2016-08-11T09:15:44.002Z,7168
2016-08-11T09:16:44.057Z,7044
2016-08-11T09:17:45.461Z,7056
2016-08-11T09:18:45.537Z,7136
2016-08-11T09:19:44.823Z,7188
2016-08-11T09:20:44.826Z,7316
2016-08-11T09:21:44.152Z,7648
2016-08-11T09:22:44.155Z,8108
2016-08-11T09:23:43.558Z,8568
2016-08-11T09:24:44.924Z,8852
2016-08-11T09:25:44.953Z,8940
2016-08-11T09:26:45.659Z,8952
2016-08-11T09:27:45.062Z,8940
2016-08-11T09:28:45.028Z,8856
2016-08-11T09:29:46.240Z,8572
2016-08-11T09:30:44.406Z,8308
2016-08-11T09:31:45.062Z,8264
2016-08-11T09:32:45.803Z,8312
2016-08-11T09:33:45.822Z,8068
2016-08-11T09:34:44.431Z,7652
2016-08-11T09:35:44.458Z,7556
2016-08-11T09:36:44.540Z,7708
2016-08-11T09:37:44.488Z,8024
2016-08-11T09:38:44.000Z,8192
2016-08-11T09:39:45.243Z,8628
2016-08-11T09:40:45.279Z,9232
2016-08-11T09:41:44.577Z,9640
2016-08-11T09:42:45.299Z,10032
2016-08-11T09:43:46.052Z,10196
2016-08-11T09:44:45.863Z,9892
2016-08-11T09:45:45.505Z,9448
2016-08-11T09:46:46.101Z,8916
2016-08-11T09:47:46.138Z,8808
2016-08-11T09:48:46.152Z,9424
2016-08-11T09:49:44.134Z,9656
2016-08-11T09:50:46.204Z,9448
2016-08-11T09:51:45.553Z,9156
2016-08-11T09:52:45.533Z,8996
2016-08-11T09:53:44.842Z,9064
2016-08-11T09:54:45.566Z,9316
2016-08-11T09:55:46.281Z,9532
2016-08-11T09:56:46.307Z,9336
2016-08-11T09:57:45.629Z,8524
2016-08-11T09:58:45.669Z,7260
2016-08-11T09:59:45.450Z,6128
2016-08-11T10:00:45.802Z,5780
2016-08-11T10:01:45.020Z,5984
2016-08-11T10:02:45.791Z,6104
2016-08-11T10:03:45.775Z,6160
2016-08-11T10:04:45.080Z,6196
2016-08-11T10:05:45.122Z,6216
2016-08-11T10:06:45.880Z,6112
2016-08-11T10:07:46.568Z,5980
2016-08-11T10:08:45.183Z,5864
2016-08-11T10:09:46.668Z,6424
2016-08-11T10:10:45.213Z,6760
2016-08-11T10:11:45.243Z,6980
2016-08-11T10:12:45.963Z,7156
2016-08-11T10:13:45.297Z,7368
2016-08-11T10:14:47.281Z,7592
2016-08-11T10:15:46.033Z,7656
2016-08-11T10:16:45.489Z,7524
2016-08-11T10:17:46.831Z,7276
2016-08-11T10:18:46.824Z,7160
2016-08-11T10:19:46.898Z,7292
2016-08-11T10:20:44.732Z,7552
2016-08-11T10:21:45.453Z,7832
2016-08-11T10:22:44.763Z,8040
2016-08-11T10:23:46.200Z,8032
2016-08-11T10:24:47.011Z,7824
2016-08-11T10:25:46.267Z,7528
2016-08-11T10:26:45.561Z,7072
2016-08-11T10:27:46.987Z,6892
2016-08-11T10:28:47.022Z,7048
2016-08-11T10:29:46.636Z,7936
2016-08-11T10:30:47.066Z,8568
2016-08-11T10:31:47.100Z,8136
2016-08-11T10:32:45.681Z,7308
2016-08-11T10:33:46.415Z,6828
2016-08-11T10:34:45.747Z,7584
2016-08-11T10:35:46.533Z,8176
2016-08-11T10:36:46.497Z,8284
2016-08-11T10:37:46.522Z,8500
2016-08-11T10:38:46.522Z,7724
2016-08-11T10:39:46.551Z,7516
2016-08-11T10:40:45.863Z,7424
2016-08-11T10:41:45.899Z,7288
2016-08-11T10:42:46.616Z,6804
2016-08-11T10:43:46.013Z,6692
2016-08-11T10:44:45.737Z,6664
2016-08-11T10:45:45.988Z,6852
2016-08-11T10:46:46.794Z,6972
2016-08-11T10:47:47.415Z,7328
2016-08-11T10:48:47.592Z,8220
2016-08-11T10:49:45.336Z,8228
2016-08-11T10:50:46.804Z,8116
2016-08-11T10:51:46.810Z,7740
2016-08-11T10:52:46.844Z,7116
2016-08-11T10:53:46.195Z,6796
2016-08-11T10:54:47.601Z,6668
2016-08-11T10:55:46.898Z,6524
2016-08-11T10:56:47.627Z,6284
2016-08-11T10:57:46.285Z,6160
2016-08-11T10:58:46.974Z,6160
2016-08-11T10:59:46.971Z,6160
2016-08-11T11:00:46.311Z,6152
2016-08-11T11:01:47.020Z,6212
2016-08-11T11:02:47.054Z,5412
2016-08-11T11:03:47.792Z,5380
2016-08-11T11:04:47.094Z,6076
2016-08-11T11:05:46.423Z,5332
2016-08-11T11:06:46.431Z,4916
2016-08-11T11:07:47.171Z,5392
2016-08-11T11:08:47.183Z,6376
2016-08-11T11:09:47.921Z,6276
2016-08-11T11:10:46.594Z,6216
2016-08-11T11:11:47.960Z,6744
2016-08-11T11:12:47.283Z,7548
2016-08-11T11:13:46.594Z,8660
2016-08-11T11:15:48.060Z,10248
2016-08-11T11:16:47.359Z,10612
2016-08-11T11:17:48.092Z,9964
2016-08-11T11:18:48.099Z,8132
2016-08-11T11:19:48.132Z,7160
2016-08-11T11:20:48.369Z,7316
2016-08-11T11:21:48.583Z,7396
2016-08-11T11:22:47.092Z,7724
2016-08-11T11:23:47.879Z,7480
2016-08-11T11:24:47.703Z,7060
2016-08-11T11:25:47.863Z,6028
2016-08-11T11:26:47.672Z,6048
2016-08-11T11:27:47.791Z,7160
2016-08-11T11:28:48.415Z,7772
2016-08-11T11:29:47.089Z,7276
2016-08-11T11:30:47.705Z,7132
2016-08-11T11:31:47.745Z,7516
2016-08-11T11:32:48.426Z,9252
2016-08-11T11:33:48.497Z,10556
2016-08-11T11:34:47.202Z,11376
2016-08-11T11:35:48.471Z,10132
2016-08-11T11:36:47.894Z,7572
2016-08-11T11:37:48.534Z,6536
2016-08-11T11:38:48.623Z,6276
2016-08-11T11:39:47.152Z,8080
2016-08-11T11:40:47.931Z,10396
2016-08-11T11:41:47.963Z,11676
2016-08-11T11:42:48.711Z,10660
2016-08-11T11:43:47.336Z,12156
2016-08-11T11:44:48.712Z,11648
2016-08-11T11:45:46.731Z,11008
2016-08-11T11:46:48.731Z,11352
2016-08-11T11:47:48.741Z,12660
2016-08-11T11:48:47.355Z,14004
2016-08-11T11:49:48.905Z,15212
2016-08-11T11:50:47.394Z,15340
2016-08-11T11:51:48.934Z,14916
2016-08-11T11:52:48.135Z,14588
2016-08-11T11:53:48.192Z,12836
2016-08-11T11:54:48.894Z,11984
2016-08-11T11:55:47.624Z,11612
2016-08-11T11:56:48.921Z,10612
2016-08-11T11:57:46.828Z,11464
2016-08-11T11:58:49.099Z,10344
2016-08-11T11:59:48.383Z,9876
2016-08-11T12:00:49.120Z,9968
2016-08-11T12:01:48.331Z,9820
2016-08-11T12:02:48.374Z,8724
2016-08-11T12:03:48.383Z,8832
2016-08-11T12:04:46.999Z,9308
2016-08-11T12:05:48.431Z,8544
2016-08-11T12:06:48.453Z,7028
2016-08-11T12:07:48.556Z,5664
2016-08-11T12:08:48.505Z,6400
2016-08-11T12:09:49.220Z,6632
2016-08-11T12:10:49.241Z,6064
2016-08-11T12:11:49.383Z,5788
2016-08-11T12:12:49.313Z,5636
2016-08-11T12:13:49.353Z,5044
2016-08-11T12:14:48.622Z,5192
2016-08-11T12:15:49.371Z,5104
2016-08-11T12:16:48.714Z,6284
2016-08-11T12:17:47.996Z,8360
2016-08-11T12:18:49.423Z,7764
2016-08-11T12:19:48.753Z,7580
2016-08-11T12:20:48.153Z,7336
2016-08-11T12:21:49.471Z,7484
2016-08-11T12:22:48.843Z,7048
2016-08-11T12:23:49.556Z,7672
2016-08-11T12:24:48.862Z,8232
2016-08-11T12:25:48.874Z,8044
2016-08-11T12:26:48.205Z,7452
2016-08-11T12:27:48.964Z,7160
2016-08-11T12:28:48.950Z,5796
2016-08-11T12:29:49.683Z,5920
2016-08-11T12:30:49.752Z,6232
2016-08-11T12:31:48.993Z,7616
2016-08-11T12:32:49.041Z,8236
2016-08-11T12:33:49.111Z,8648
2016-08-11T12:34:48.382Z,7540
2016-08-11T12:35:49.141Z,6244
2016-08-11T12:36:49.833Z,4660
2016-08-11T12:37:49.127Z,3612
2016-08-11T12:38:49.162Z,4112
2016-08-11T12:39:49.169Z,4792
2016-08-11T12:40:49.910Z,6780
2016-08-11T12:41:49.943Z,8084
2016-08-11T12:42:49.252Z,7900
2016-08-11T12:43:49.292Z,7856
2016-08-11T12:44:49.298Z,7224
2016-08-11T12:45:48.599Z,7240
2016-08-11T12:46:49.337Z,6876
2016-08-11T12:47:49.360Z,6708
2016-08-11T12:48:50.420Z,6980
2016-08-11T12:49:49.414Z,7344
2016-08-11T12:50:49.431Z,7988
2016-08-11T12:51:50.314Z,6724
2016-08-11T12:52:48.844Z,7192
2016-08-11T12:53:48.861Z,6868
2016-08-11T12:54:48.813Z,6548
2016-08-11T12:55:49.667Z,6196
2016-08-11T12:56:48.852Z,6972
2016-08-11T12:57:48.871Z,6228
2016-08-11T12:58:49.595Z,6540
2016-08-11T12:59:49.644Z,5400
2016-08-11T13:00:48.940Z,5232
2016-08-11T13:01:49.647Z,4500
2016-08-11T13:02:49.673Z,4480
2016-08-11T13:03:49.693Z,5868
2016-08-11T13:04:49.063Z,6700
2016-08-11T13:05:49.040Z,6860
2016-08-11T13:06:49.159Z,7424
2016-08-11T13:07:49.086Z,6968
2016-08-11T13:08:50.503Z,7516
2016-08-11T13:09:49.833Z,6628
2016-08-11T13:10:49.867Z,7484
2016-08-11T13:11:49.159Z,6428
2016-08-11T13:12:49.960Z,5772
2016-08-11T13:13:49.913Z,4980
2016-08-11T13:14:49.240Z,4376
2016-08-11T13:15:49.975Z,4436
2016-08-11T13:16:49.993Z,4020
2016-08-11T13:17:50.005Z,3816
2016-08-11T13:18:49.332Z,4280
2016-08-11T13:19:50.763Z,4352
2016-08-11T13:20:50.073Z,4888
2016-08-11T13:21:50.133Z,4848
2016-08-11T13:22:49.421Z,4608
2016-08-11T13:23:49.432Z,4436
2016-08-11T13:24:50.193Z,4212
2016-08-11T13:25:49.462Z,4396
2016-08-11T13:26:50.191Z,3964
2016-08-11T13:27:49.523Z,4244
2016-08-11T13:28:50.954Z,3672
2016-08-11T13:29:49.550Z,4192
2016-08-11T13:30:50.982Z,4892
2016-08-11T13:31:51.002Z,4676
2016-08-11T13:32:51.047Z,3716
2016-08-11T13:33:49.721Z,4644
2016-08-11T13:34:48.954Z,5872
2016-08-11T13:35:51.104Z,4860
2016-08-11T13:36:49.712Z,5192
2016-08-11T13:37:51.141Z,5140
2016-08-11T13:38:50.674Z,4820
2016-08-11T13:39:51.202Z,4640
2016-08-11T13:40:50.616Z,4504
2016-08-11T13:41:51.222Z,4468
2016-08-11T13:42:51.262Z,5376
2016-08-11T13:43:49.873Z,5636